Time;durP1;ratioP1;P1;durP2;ratioP2;P2;SDS_P1;SDS_P2;PMS_P1;PMS_P2;Temp;Humidity;BMP_temperature;BMP_pressure;BME280_temperature;BME280_humidity;BME280_pressure;Samples;Min_cycle;Max_cycle;Signal;HPM_P1;HPM_P2
2021/04/20 00:00:43;;;;;;;31.80;21.90;;;7.40;99.90;;;;;;4977484;28;20030;-75
2021/04/20 00:03:09;;;;;;;78.03;37.22;;;7.40;99.90;;;;;;4977210;28;20022;-76
2021/04/20 00:05:35;;;;;;;36.40;23.33;;;7.40;99.90;;;;;;4974056;28;20037;-77
2021/04/20 00:08:02;;;;;;;31.45;22.23;;;7.30;99.90;;;;;;4978891;28;20061;-75
2021/04/20 00:10:28;;;;;;;31.05;21.90;;;7.30;99.90;;;;;;4968433;28;20062;-76
2021/04/20 00:12:54;;;;;;;33.75;21.60;;;7.30;99.90;;;;;;4970990;28;20129;-76
2021/04/20 00:15:23;;;;;;;32.97;22.25;;;7.30;99.90;;;;;;4973986;28;20034;-77
2021/04/20 00:17:51;;;;;;;36.60;23.58;;;7.20;99.90;;;;;;4981591;28;20031;-77
2021/04/20 00:20:18;;;;;;;37.92;24.65;;;7.20;99.90;;;;;;4973786;28;20547;-79
2021/04/20 00:22:43;;;;;;;37.00;23.20;;;7.40;99.90;;;;;;4979318;28;20374;-77
2021/04/20 00:25:10;;;;;;;33.42;22.58;;;7.20;99.90;;;;;;4984440;28;20033;-75
2021/04/20 00:27:35;;;;;;;37.72;23.25;;;7.10;99.90;;;;;;4975930;28;20062;-76
2021/04/20 00:30:02;;;;;;;32.78;22.55;;;7.00;99.90;;;;;;4978228;28;20464;-77
2021/04/20 00:32:27;;;;;;;33.92;23.17;;;7.00;99.90;;;;;;4981511;28;20069;-74
2021/04/20 00:34:53;;;;;;;34.83;23.63;;;6.90;99.90;;;;;;4981155;28;20050;-75
2021/04/20 00:37:19;;;;;;;35.53;24.15;;;6.70;99.90;;;;;;4983716;28;20551;-75
2021/04/20 00:39:44;;;;;;;37.22;24.65;;;6.70;99.90;;;;;;4983947;28;20049;-74
2021/04/20 00:42:10;;;;;;;39.75;25.70;;;6.70;99.90;;;;;;4978213;28;20023;-75
2021/04/20 00:44:36;;;;;;;36.05;24.27;;;6.70;99.90;;;;;;4975427;28;20542;-75
2021/04/20 00:47:03;;;;;;;44.40;24.80;;;6.60;99.90;;;;;;4980209;28;20030;-75
2021/04/20 00:49:30;;;;;;;39.40;24.48;;;6.50;99.90;;;;;;4981202;28;20054;-77
2021/04/20 00:51:56;;;;;;;37.28;24.90;;;6.50;99.90;;;;;;4973095;28;20034;-76
2021/04/20 00:54:23;;;;;;;120.43;30.23;;;6.60;99.90;;;;;;4980471;28;20030;-76
2021/04/20 00:56:49;;;;;;;128.15;31.70;;;6.90;99.90;;;;;;4978863;28;20461;-75
2021/04/20 00:59:14;;;;;;;113.47;34.95;;;6.60;99.90;;;;;;4982079;28;20034;-75
2021/04/20 01:01:41;;;;;;;69.80;32.58;;;6.50;99.90;;;;;;4981337;28;20507;-75
2021/04/20 01:04:12;;;;;;;110.75;33.22;;;6.50;99.90;;;;;;4996365;28;20050;-77
2021/04/20 01:06:38;;;;;;;108.93;33.50;;;6.50;99.90;;;;;;4973193;28;20088;-75
2021/04/20 01:09:06;;;;;;;86.28;34.83;;;6.40;99.90;;;;;;4981326;28;20046;-77
2021/04/20 01:11:34;;;;;;;99.18;34.33;;;6.30;99.90;;;;;;4983760;28;20050;-75
2021/04/20 01:14:01;;;;;;;152.35;35.58;;;6.30;99.90;;;;;;4985366;28;20497;-73
2021/04/20 01:16:29;;;;;;;73.70;33.92;;;6.30;99.90;;;;;;4980345;28;20027;-75
2021/04/20 01:18:55;;;;;;;77.00;35.17;;;6.20;99.90;;;;;;4983638;28;20098;-76
2021/04/20 01:21:21;;;;;;;60.60;34.45;;;6.20;99.90;;;;;;4976891;28;20026;-77
2021/04/20 01:24:08;;;;;;;68.22;35.80;;;6.20;99.90;;;;;;4993198;28;20030;-76
2021/04/20 01:26:42;;;;;;;72.82;32.70;;;6.30;99.90;;;;;;4985641;28;20485;-76
2021/04/20 01:29:09;;;;;;;84.00;32.30;;;6.40;99.90;;;;;;4986987;28;20049;-75
2021/04/20 01:31:37;;;;;;;68.22;34.35;;;6.40;99.90;;;;;;4980644;28;20022;-75
2021/04/20 01:34:06;;;;;;;69.28;34.50;;;6.40;99.90;;;;;;4984791;28;20193;-78
2021/04/20 01:36:31;;;;;;;110.75;34.65;;;6.40;99.90;;;;;;4981662;28;20452;-77
2021/04/20 01:38:58;;;;;;;146.07;35.78;;;6.40;99.90;;;;;;4978818;28;20098;-76
2021/04/20 01:41:26;;;;;;;189.75;35.90;;;6.30;99.90;;;;;;4983350;28;20149;-76
2021/04/20 01:43:54;;;;;;;103.53;31.48;;;6.20;99.90;;;;;;4981701;28;20034;-75
2021/04/20 01:46:20;;;;;;;200.35;35.25;;;6.20;99.90;;;;;;4981143;28;20030;-75
2021/04/20 01:48:47;;;;;;;246.68;36.70;;;6.10;99.90;;;;;;4983179;28;22384;-77
2021/04/20 01:51:14;;;;;;;131.70;34.60;;;6.00;99.90;;;;;;4978442;28;20504;-76
2021/04/20 01:53:40;;;;;;;138.02;33.95;;;6.00;99.90;;;;;;4974731;28;20039;-77
2021/04/20 01:56:11;;;;;;;260.33;40.13;;;6.00;99.90;;;;;;4980814;28;20030;-77
2021/04/20 01:58:38;;;;;;;222.88;36.15;;;6.00;99.90;;;;;;4983585;28;20306;-77
2021/04/20 02:01:09;;;;;;;174.68;36.38;;;5.90;99.90;;;;;;4982709;28;20053;-75
2021/04/20 02:03:35;;;;;;;105.25;35.33;;;5.70;99.90;;;;;;4983513;28;20027;-76
2021/04/20 02:06:01;;;;;;;133.30;33.97;;;5.80;99.90;;;;;;4980800;28;20374;-76
2021/04/20 02:08:28;;;;;;;82.93;35.60;;;5.80;99.90;;;;;;4977716;28;20034;-77
2021/04/20 02:10:59;;;;;;;152.13;36.92;;;5.80;99.90;;;;;;4978837;28;20038;-76
2021/04/20 02:13:25;;;;;;;109.57;33.35;;;5.80;99.90;;;;;;4982327;28;20030;-75
2021/04/20 02:15:51;;;;;;;125.05;35.95;;;6.00;99.90;;;;;;4996594;28;20027;-77
2021/04/20 02:18:20;;;;;;;133.38;33.83;;;5.80;99.90;;;;;;4980978;28;20393;-76
2021/04/20 02:20:47;;;;;;;109.13;34.83;;;5.80;99.90;;;;;;4977494;28;20493;-76
2021/04/20 02:23:14;;;;;;;86.15;32.90;;;5.70;99.90;;;;;;4997909;28;20448;-76
2021/04/20 02:25:42;;;;;;;96.63;35.22;;;5.70;99.90;;;;;;4965025;28;20042;-76
2021/04/20 02:28:09;;;;;;;76.03;33.00;;;5.80;99.90;;;;;;4978125;28;20033;-76
2021/04/20 02:30:35;;;;;;;69.38;32.70;;;5.80;99.90;;;;;;4981718;28;20033;-77
2021/04/20 02:33:00;;;;;;;119.07;32.60;;;5.80;99.90;;;;;;4979069;28;20034;-77
2021/04/20 02:35:28;;;;;;;56.00;30.42;;;5.90;99.90;;;;;;4982867;28;20436;-76
2021/04/20 02:37:54;;;;;;;58.58;28.13;;;5.90;99.90;;;;;;4980954;28;20122;-75
2021/04/20 02:40:23;;;;;;;55.55;29.92;;;5.90;99.90;;;;;;4976583;28;20019;-78
2021/04/20 02:42:50;;;;;;;52.30;29.83;;;5.90;99.90;;;;;;4985043;28;20086;-75
2021/04/20 02:45:17;;;;;;;42.53;25.85;;;5.90;99.90;;;;;;4980169;28;20093;-76
2021/04/20 02:47:43;;;;;;;38.88;23.52;;;5.90;99.90;;;;;;4974548;28;21376;-75
2021/04/20 02:50:20;;;;;;;36.60;23.90;;;5.90;99.90;;;;;;4977809;28;20062;-77
2021/04/20 02:52:48;;;;;;;41.40;24.75;;;5.90;99.90;;;;;;4977599;28;20045;-76
2021/04/20 02:55:14;;;;;;;38.67;23.40;;;5.80;99.90;;;;;;4980813;28;20050;-74
2021/04/20 02:57:44;;;;;;;41.72;24.63;;;5.80;99.90;;;;;;4977486;28;20394;-77
2021/04/20 03:00:16;;;;;;;41.88;24.15;;;5.80;99.90;;;;;;4983294;28;20030;-73
2021/04/20 03:02:44;;;;;;;41.40;25.45;;;5.80;99.90;;;;;;4974301;28;20031;-77
2021/04/20 03:05:15;;;;;;;46.55;27.60;;;5.80;99.90;;;;;;4978878;28;21181;-75
2021/04/20 03:07:42;;;;;;;39.10;24.25;;;5.80;99.90;;;;;;4977527;28;20116;-76
2021/04/20 03:10:10;;;;;;;41.20;26.27;;;5.80;99.90;;;;;;4979732;28;20088;-76
2021/04/20 03:12:36;;;;;;;41.83;25.35;;;5.80;99.90;;;;;;4980852;28;20038;-75
2021/04/20 03:15:04;;;;;;;40.25;25.02;;;5.80;99.90;;;;;;5000556;28;20034;-76
2021/04/20 03:17:29;;;;;;;40.85;25.77;;;5.80;99.90;;;;;;4980859;28;20041;-77
2021/04/20 03:19:56;;;;;;;37.47;24.08;;;5.80;99.90;;;;;;4983388;28;20030;-75
2021/04/20 03:22:24;;;;;;;40.78;24.48;;;5.80;99.90;;;;;;4979992;28;20022;-75
2021/04/20 03:25:03;;;;;;;41.47;25.13;;;5.70;99.90;;;;;;4981811;28;20031;-77
2021/04/20 03:27:29;;;;;;;41.78;25.15;;;5.70;99.90;;;;;;4981415;28;20038;-76
2021/04/20 03:29:55;;;;;;;41.15;24.30;;;5.70;99.90;;;;;;4981637;28;20120;-75
2021/04/20 03:32:20;;;;;;;38.05;23.23;;;5.60;99.90;;;;;;4980441;28;20088;-74
2021/04/20 03:34:57;;;;;;;37.30;22.63;;;5.60;99.90;;;;;;4980779;28;20034;-75
2021/04/20 03:37:37;;;;;;;36.05;22.05;;;5.50;99.90;;;;;;4974485;28;20022;-77
2021/04/20 03:40:09;;;;;;;37.10;22.30;;;5.50;99.90;;;;;;4977924;28;20117;-76
2021/04/20 03:42:40;;;;;;;37.08;23.13;;;5.40;99.90;;;;;;4961479;28;20683;-76
2021/04/20 03:45:14;;;;;;;41.42;24.50;;;5.40;99.90;;;;;;4977837;28;20038;-75
2021/04/20 03:47:45;;;;;;;39.25;24.23;;;5.30;99.90;;;;;;4981689;28;20066;-74
2021/04/20 03:50:23;;;;;;;41.58;24.08;;;5.30;99.90;;;;;;4995992;28;20065;-76
2021/04/20 03:53:03;;;;;;;39.28;23.33;;;5.20;99.90;;;;;;4978117;28;20714;-76
2021/04/20 03:55:32;;;;;;;35.88;22.25;;;5.20;99.90;;;;;;4981252;28;20052;-75
2021/04/20 03:57:59;;;;;;;39.13;22.98;;;5.20;99.90;;;;;;4983262;28;20030;-76
2021/04/20 04:00:25;;;;;;;37.53;22.65;;;5.20;99.90;;;;;;4984558;28;20038;-76
2021/04/20 04:02:54;;;;;;;39.45;24.88;;;5.10;99.90;;;;;;4981230;28;20030;-75
2021/04/20 04:05:26;;;;;;;39.08;24.52;;;5.10;99.90;;;;;;4978315;28;20072;-75
2021/04/20 04:07:55;;;;;;;42.33;25.45;;;5.10;99.90;;;;;;4994702;28;20050;-77
2021/04/20 04:10:22;;;;;;;34.90;23.92;;;5.10;99.90;;;;;;4986715;28;20132;-75
2021/04/20 04:13:00;;;;;;;37.47;22.75;;;5.10;99.90;;;;;;4980668;28;20531;-77
2021/04/20 04:15:30;;;;;;;38.00;22.27;;;5.10;99.90;;;;;;4964032;28;20027;-76
2021/04/20 04:17:58;;;;;;;36.85;22.92;;;5.10;99.90;;;;;;4978742;28;20022;-74
2021/04/20 04:20:24;;;;;;;39.35;22.58;;;5.10;99.90;;;;;;4964395;28;20023;-76
2021/04/20 04:23:08;;;;;;;36.53;22.35;;;5.00;99.90;;;;;;4983360;28;20049;-75
2021/04/20 04:25:37;;;;;;;37.83;22.55;;;5.00;99.90;;;;;;4988942;28;20494;-75
2021/04/20 04:28:06;;;;;;;63.65;25.95;;;5.00;99.90;;;;;;4980016;28;20050;-76
2021/04/20 04:30:32;;;;;;;48.67;25.50;;;4.90;99.90;;;;;;4979785;28;20077;-77
2021/04/20 04:33:00;;;;;;;68.47;25.85;;;4.90;99.90;;;;;;4977964;28;20104;-75
2021/04/20 04:35:27;;;;;;;47.53;26.33;;;4.90;99.90;;;;;;4969188;28;20448;-76
2021/04/20 04:37:54;;;;;;;61.83;24.98;;;4.80;99.90;;;;;;4982966;28;20045;-76
2021/04/20 04:40:20;;;;;;;35.45;23.13;;;4.80;99.90;;;;;;4982923;28;20030;-76
2021/04/20 04:42:46;;;;;;;37.70;22.65;;;4.80;99.90;;;;;;4977188;28;20401;-77
2021/04/20 04:45:13;;;;;;;40.78;24.13;;;4.80;99.90;;;;;;4985489;28;20030;-75
2021/04/20 04:47:39;;;;;;;37.00;23.33;;;4.90;99.90;;;;;;4996560;28;20035;-76
2021/04/20 04:50:07;;;;;;;36.80;22.92;;;3.40;99.90;;;;;;4999957;28;20028;-77
2021/04/20 04:52:34;;;;;;;37.72;23.30;;;4.90;99.90;;;;;;4987446;28;20022;-75
2021/04/20 04:55:01;;;;;;;36.10;22.33;;;4.90;99.90;;;;;;4986892;28;20473;-77
2021/04/20 04:57:31;;;;;;;35.10;20.55;;;4.90;99.90;;;;;;4984874;28;20600;-76
2021/04/20 05:00:03;;;;;;;33.22;21.13;;;4.90;99.90;;;;;;5002923;28;20022;-75
2021/04/20 05:02:29;;;;;;;33.97;21.02;;;4.90;99.90;;;;;;4978347;28;20015;-76
2021/04/20 05:04:56;;;;;;;34.20;20.70;;;4.90;99.90;;;;;;4980931;28;20029;-74
2021/04/20 05:07:25;;;;;;;35.58;21.83;;;5.00;99.90;;;;;;4981130;28;20061;-79
2021/04/20 05:09:58;;;;;;;33.85;20.85;;;5.00;99.90;;;;;;4980391;28;20042;-76
2021/04/20 05:12:24;;;;;;;35.65;21.33;;;5.00;99.90;;;;;;4972043;28;20030;-77
2021/04/20 05:14:50;;;;;;;34.55;21.58;;;4.90;99.90;;;;;;4974243;28;20124;-75
2021/04/20 05:17:19;;;;;;;35.65;21.30;;;4.90;99.90;;;;;;4987435;28;20029;-77
2021/04/20 05:19:45;;;;;;;33.40;21.45;;;5.00;99.90;;;;;;4975264;28;20050;-78
2021/04/20 05:22:12;;;;;;;31.65;20.42;;;4.90;99.90;;;;;;4975742;28;20140;-77
2021/04/20 05:24:38;;;;;;;35.17;21.45;;;5.00;99.90;;;;;;4973692;28;20034;-76
2021/04/20 05:27:06;;;;;;;37.05;21.63;;;5.00;99.90;;;;;;4972424;28;20035;-77
2021/04/20 05:29:32;;;;;;;32.45;21.25;;;5.00;99.90;;;;;;4975744;28;20114;-75
2021/04/20 05:31:58;;;;;;;35.90;21.80;;;5.00;99.90;;;;;;4988180;28;20104;-76
2021/04/20 05:34:23;;;;;;;34.03;21.85;;;5.10;99.90;;;;;;4976025;28;20394;-76
2021/04/20 05:36:50;;;;;;;34.58;22.55;;;5.10;99.90;;;;;;4981485;28;20093;-75
2021/04/20 05:39:16;;;;;;;32.22;20.75;;;5.10;99.90;;;;;;4979443;28;20030;-76
2021/04/20 05:41:42;;;;;;;33.67;21.83;;;5.10;99.90;;;;;;4983447;28;20022;-75
2021/04/20 05:44:11;;;;;;;31.85;20.88;;;5.00;99.90;;;;;;4975898;28;20040;-76
2021/04/20 05:46:39;;;;;;;37.35;23.00;;;5.10;99.90;;;;;;4975904;28;20037;-76
2021/04/20 05:49:05;;;;;;;32.83;21.27;;;5.10;99.90;;;;;;4977295;28;20124;-76
2021/04/20 05:51:31;;;;;;;36.38;23.10;;;5.20;99.90;;;;;;4976503;28;20715;-75
2021/04/20 05:53:57;;;;;;;35.67;22.40;;;5.30;99.90;;;;;;4977959;28;20026;-77
2021/04/20 05:56:27;;;;;;;35.95;21.30;;;5.30;99.90;;;;;;4977294;28;20026;-76
2021/04/20 05:58:58;;;;;;;36.08;22.92;;;5.40;99.90;;;;;;4979728;28;20053;-76
2021/04/20 06:01:25;;;;;;;39.72;25.40;;;5.50;99.90;;;;;;4997929;28;20030;-77
2021/04/20 06:03:51;;;;;;;50.28;27.30;;;5.50;99.90;;;;;;4961666;28;20535;-75
2021/04/20 06:06:21;;;;;;;52.67;28.48;;;5.50;99.90;;;;;;4983753;28;20741;-75
2021/04/20 06:08:49;;;;;;;53.53;29.05;;;5.50;99.90;;;;;;4980266;28;20046;-75
2021/04/20 06:11:16;;;;;;;66.10;31.95;;;5.50;99.90;;;;;;4961642;28;20653;-74
2021/04/20 06:13:42;;;;;;;64.07;32.08;;;5.50;99.90;;;;;;4981000;28;20046;-75
2021/04/20 06:16:10;;;;;;;56.78;30.08;;;5.50;99.90;;;;;;4981648;28;20498;-75
2021/04/20 06:18:38;;;;;;;66.22;29.98;;;5.60;99.90;;;;;;4980601;28;20026;-74
2021/04/20 06:21:06;;;;;;;65.13;30.20;;;5.60;99.90;;;;;;4981806;28;20497;-77
2021/04/20 06:23:33;;;;;;;58.03;30.60;;;5.60;99.90;;;;;;4978768;28;20045;-76
2021/04/20 06:26:01;;;;;;;54.42;28.15;;;5.70;99.90;;;;;;4983997;28;20489;-76
2021/04/20 06:28:27;;;;;;;60.53;30.58;;;5.70;99.90;;;;;;4959405;28;20066;-77
2021/04/20 06:30:57;;;;;;;61.60;29.60;;;5.70;99.90;;;;;;4973085;28;20031;-74
2021/04/20 06:33:27;;;;;;;55.85;28.90;;;5.70;99.90;;;;;;4980096;28;20060;-76
2021/04/20 06:35:54;;;;;;;52.43;29.37;;;5.80;99.90;;;;;;4979595;28;20046;-75
2021/04/20 06:38:20;;;;;;;51.40;28.60;;;5.70;99.90;;;;;;4977364;28;20545;-75
2021/04/20 06:40:48;;;;;;;49.45;29.15;;;5.80;99.90;;;;;;4974411;28;20041;-75
2021/04/20 06:43:20;;;;;;;53.38;28.00;;;5.70;99.90;;;;;;4980524;28;20544;-75
2021/04/20 06:45:52;;;;;;;50.17;28.17;;;5.80;99.90;;;;;;4982623;28;20026;-75
2021/04/20 06:48:42;;;;;;;48.47;28.05;;;5.70;99.90;;;;;;4963174;28;20061;-75
2021/04/20 06:51:20;;;;;;;47.97;26.65;;;5.80;99.90;;;;;;4980691;28;20134;-75
2021/04/20 06:54:04;;;;;;;42.90;26.13;;;6.00;99.90;;;;;;4979509;28;20117;-75
2021/04/20 06:56:36;;;;;;;42.75;25.40;;;6.10;99.90;;;;;;4960203;28;20031;-76
2021/04/20 06:59:27;;;;;;;40.92;26.00;;;6.20;99.90;;;;;;4980014;28;20073;-75
2021/04/20 07:02:09;;;;;;;43.90;25.02;;;6.30;99.90;;;;;;4975966;28;20159;-76
2021/04/20 07:04:43;;;;;;;42.08;26.38;;;6.40;99.90;;;;;;4980390;28;20508;-76
2021/04/20 07:07:25;;;;;;;40.80;24.92;;;6.50;99.90;;;;;;4977317;28;21131;-76
2021/04/20 07:10:10;;;;;;;40.55;25.00;;;6.70;99.90;;;;;;4982421;28;21454;-75
2021/04/20 07:12:37;;;;;;;36.33;23.52;;;6.90;99.90;;;;;;4979130;28;20026;-75
2021/04/20 07:15:04;;;;;;;36.10;23.45;;;7.10;99.90;;;;;;4979367;28;20030;-76
2021/04/20 07:17:36;;;;;;;41.85;24.63;;;7.20;99.90;;;;;;4979784;28;20026;-75
2021/04/20 07:20:36;;;;;;;38.78;24.38;;;7.30;99.90;;;;;;4982062;28;20022;-76
2021/04/20 07:23:41;;;;;;;39.33;24.60;;;7.50;99.90;;;;;;4982637;28;20549;-75
2021/04/20 07:26:42;;;;;;;40.17;24.73;;;7.70;99.90;;;;;;4977337;28;20033;-77
2021/04/20 07:29:35;;;;;;;38.65;22.85;;;7.80;99.90;;;;;;4959232;28;20033;-75
2021/04/20 07:32:25;;;;;;;41.30;24.45;;;8.10;99.90;;;;;;4979773;28;20030;-74
2021/04/20 07:35:12;;;;;;;40.50;24.63;;;8.30;99.90;;;;;;4977867;28;20469;-75
2021/04/20 07:37:40;;;;;;;45.58;25.17;;;8.40;99.90;;;;;;4977503;28;20034;-75
2021/04/20 07:40:41;;;;;;;39.25;23.67;;;8.50;99.90;;;;;;4974329;28;20613;-75
2021/04/20 07:43:40;;;;;;;37.92;23.02;;;8.80;99.90;;;;;;4980193;28;20022;-76
2021/04/20 07:46:26;;;;;;;34.72;22.83;;;8.90;99.90;;;;;;4995150;28;20617;-76
2021/04/20 07:49:00;;;;;;;34.28;21.95;;;9.10;99.90;;;;;;4980334;28;20037;-77
2021/04/20 07:51:35;;;;;;;34.85;21.92;;;9.20;99.90;;;;;;4977862;28;20050;-75
2021/04/20 07:54:22;;;;;;;36.30;23.08;;;9.40;99.90;;;;;;4976744;28;20471;-76
2021/04/20 07:56:58;;;;;;;35.40;20.90;;;9.70;99.90;;;;;;4995853;28;20077;-76
2021/04/20 07:59:40;;;;;;;31.48;21.00;;;9.90;99.90;;;;;;4971980;28;20489;-76
2021/04/20 08:02:19;;;;;;;34.42;21.17;;;10.10;99.90;;;;;;4993488;28;20030;-78
2021/04/20 08:05:03;;;;;;;30.20;20.08;;;10.20;99.90;;;;;;4976202;28;20058;-76
2021/04/20 08:08:04;;;;;;;28.42;19.92;;;10.50;99.90;;;;;;4980860;28;20038;-76
2021/04/20 08:10:37;;;;;;;;;;;10.60;99.90;;;;;;4972641;28;20046;-76
2021/04/20 08:13:22;;;;;;;30.50;19.75;;;10.60;99.90;;;;;;4990975;28;20373;-76
2021/04/20 08:15:51;;;;;;;30.27;20.10;;;10.80;99.90;;;;;;4945929;28;20460;-77
2021/04/20 08:18:37;;;;;;;26.67;18.80;;;10.90;99.90;;;;;;4980496;28;20065;-76
2021/04/20 08:21:04;;;;;;;30.13;20.45;;;11.10;99.90;;;;;;4981737;28;20390;-76
2021/04/20 08:23:32;;;;;;;27.33;19.88;;;11.00;99.90;;;;;;4985523;28;20452;-76
2021/04/20 08:26:30;;;;;;;27.80;19.27;;;11.20;99.90;;;;;;4986400;28;20034;-75
2021/04/20 08:29:04;;;;;;;28.63;19.33;;;11.50;99.90;;;;;;4982353;28;20413;-80
2021/04/20 08:31:47;;;;;;;30.58;19.98;;;11.60;99.40;;;;;;4984983;28;20030;-77
2021/04/20 08:34:20;;;;;;;29.08;20.90;;;11.80;99.10;;;;;;4965726;28;20034;-76
2021/04/20 08:36:58;;;;;;;29.20;21.15;;;12.30;98.80;;;;;;4999287;28;20316;-76
2021/04/20 08:39:42;;;;;;;26.70;19.83;;;12.20;98.30;;;;;;4970758;28;20157;-77
2021/04/20 08:42:39;;;;;;;28.63;20.10;;;12.00;98.30;;;;;;4984021;28;20515;-75
2021/04/20 08:45:19;;;;;;;27.83;19.70;;;12.30;98.40;;;;;;4977819;28;20481;-76
2021/04/20 08:48:23;;;;;;;28.85;19.88;;;12.50;97.70;;;;;;4999671;28;20073;-75
2021/04/20 08:50:57;;;;;;;29.65;20.40;;;12.80;96.60;;;;;;4979637;28;20053;-75
2021/04/20 08:53:54;;;;;;;26.83;19.30;;;12.80;96.60;;;;;;4965576;28;20034;-74
2021/04/20 08:56:34;;;;;;;25.33;17.95;;;13.20;96.00;;;;;;4983410;28;20033;-76
2021/04/20 08:59:16;;;;;;;26.00;19.08;;;13.40;95.50;;;;;;4999765;28;20077;-75
2021/04/20 09:02:06;;;;;;;26.52;19.40;;;13.40;95.30;;;;;;4982666;28;20035;-76
2021/04/20 09:04:56;;;;;;;26.08;18.35;;;13.60;94.50;;;;;;4985728;28;20030;-76
2021/04/20 09:07:50;;;;;;;26.25;18.15;;;13.80;94.10;;;;;;4984911;28;20037;-77
2021/04/20 09:10:18;;;;;;;23.50;16.88;;;14.10;93.20;;;;;;4993894;28;20033;-76
2021/04/20 09:12:46;;;;;;;24.23;16.83;;;14.00;93.30;;;;;;4985908;28;20477;-75
2021/04/20 09:15:13;;;;;;;22.17;17.33;;;14.40;92.30;;;;;;4985920;28;20576;-77
2021/04/20 09:17:46;;;;;;;23.13;17.67;;;14.50;91.60;;;;;;4982782;28;20998;-74
2021/04/20 09:20:18;;;;;;;22.60;17.40;;;14.70;90.20;;;;;;4982002;28;20026;-76
2021/04/20 09:23:05;;;;;;;23.23;18.20;;;14.80;90.20;;;;;;4984803;28;20023;-75
2021/04/20 09:25:34;;;;;;;21.52;16.90;;;14.90;90.10;;;;;;4984732;28;20049;-76
2021/04/20 09:28:07;;;;;;;21.77;17.05;;;14.70;90.40;;;;;;4985383;28;20377;-76
2021/04/20 09:30:53;;;;;;;21.75;16.35;;;14.90;88.30;;;;;;4975527;28;20045;-76
2021/04/20 09:33:21;;;;;;;22.80;16.13;;;14.80;89.60;;;;;;4984948;28;20027;-76
2021/04/20 09:35:48;;;;;;;22.15;17.15;;;15.00;88.00;;;;;;4987573;28;20023;-77
2021/04/20 09:38:17;;;;;;;21.70;16.95;;;15.20;88.20;;;;;;4983928;28;20066;-76
2021/04/20 09:40:45;;;;;;;21.70;16.50;;;15.30;87.80;;;;;;4985615;28;20471;-76
2021/04/20 09:43:30;;;;;;;20.58;15.43;;;15.50;87.60;;;;;;4985265;28;20022;-76
2021/04/20 09:46:21;;;;;;;20.95;14.55;;;15.60;84.30;;;;;;5001022;28;20019;-76
2021/04/20 09:49:14;;;;;;;18.30;13.70;;;15.60;80.70;;;;;;4999551;28;20445;-76
2021/04/20 09:51:58;;;;;;;18.92;13.45;;;15.70;80.10;;;;;;4980117;28;20089;-76
2021/04/20 09:54:48;;;;;;;19.10;14.45;;;17.30;79.70;;;;;;5000506;28;20109;-76
2021/04/20 09:57:15;;;;;;;17.27;12.90;;;15.90;77.70;;;;;;4989575;28;20100;-76
2021/04/20 09:59:54;;;;;;;19.83;13.55;;;15.80;76.70;;;;;;4986451;28;20061;-76
2021/04/20 10:02:25;;;;;;;16.27;12.63;;;15.90;75.60;;;;;;4980722;28;20150;-76
2021/04/20 10:05:08;;;;;;;20.08;14.18;;;15.80;75.10;;;;;;4979681;28;20027;-77
2021/04/20 10:07:59;;;;;;;17.20;12.98;;;15.80;77.30;;;;;;4979359;28;20034;-77
2021/04/20 10:10:49;;;;;;;15.27;11.52;;;16.40;74.10;;;;;;4982109;28;20053;-78
2021/04/20 10:13:40;;;;;;;18.42;11.95;;;16.40;71.00;;;;;;4992901;28;20557;-75
2021/04/20 10:16:18;;;;;;;14.80;11.23;;;16.60;69.90;;;;;;4981627;28;20065;-76
2021/04/20 10:19:25;;;;;;;14.10;10.70;;;16.60;70.30;;;;;;4980502;28;20019;-77
2021/04/20 10:22:02;;;;;;;15.55;11.82;;;16.90;67.30;;;;;;4982372;28;20738;-78
2021/04/20 10:24:30;;;;;;;13.65;10.35;;;17.10;67.90;;;;;;4981347;28;20032;-79
2021/04/20 10:27:10;;;;;;;14.32;10.65;;;17.20;63.70;;;;;;4984220;28;20104;-75
2021/04/20 10:29:39;;;;;;;13.52;10.05;;;17.00;65.10;;;;;;4980960;28;20473;-76
2021/04/20 10:32:12;;;;;;;13.33;10.13;;;17.20;63.10;;;;;;4979317;28;20069;-76
2021/04/20 10:34:48;;;;;;;14.55;10.68;;;17.10;63.40;;;;;;4984803;28;20572;-76
2021/04/20 10:37:15;;;;;;;13.80;10.90;;;17.30;63.80;;;;;;4982783;28;21089;-77
2021/04/20 10:39:46;;;;;;;15.23;11.18;;;17.20;63.70;;;;;;4980499;28;20041;-77
2021/04/20 10:42:16;;;;;;;13.27;10.85;;;17.40;62.80;;;;;;4981066;28;20054;-75
2021/04/20 10:44:47;;;;;;;14.93;11.23;;;17.50;62.30;;;;;;4977778;28;20030;-74
2021/04/20 10:47:18;;;;;;;14.55;11.07;;;17.20;61.50;;;;;;4981149;28;20053;-77
2021/04/20 10:49:51;;;;;;;13.07;10.30;;;17.40;62.30;;;;;;4983152;28;20514;-77
2021/04/20 10:52:19;;;;;;;16.45;10.93;;;17.20;61.10;;;;;;4977018;28;20082;-77
2021/04/20 10:54:45;;;;;;;14.27;10.00;;;17.00;60.40;;;;;;4986470;28;20026;-77
2021/04/20 10:57:12;;;;;;;12.90;9.77;;;17.10;61.40;;;;;;4982069;28;20501;-76
2021/04/20 10:59:41;;;;;;;13.93;10.68;;;17.40;61.40;;;;;;4977419;28;20097;-78
2021/04/20 11:02:21;;;;;;;13.77;9.93;;;17.50;58.80;;;;;;4984158;28;20022;-76
2021/04/20 11:04:50;;;;;;;13.05;9.80;;;17.30;60.40;;;;;;4980572;28;20410;-75
2021/04/20 11:07:17;;;;;;;11.65;8.63;;;17.30;59.50;;;;;;4984903;28;20031;-76
2021/04/20 11:09:44;;;;;;;9.70;7.70;;;17.50;58.20;;;;;;4980167;28;20085;-76
2021/04/20 11:12:16;;;;;;;13.38;10.02;;;17.70;57.70;;;;;;4986723;28;20026;-78
2021/04/20 11:14:47;;;;;;;14.02;9.82;;;18.00;57.10;;;;;;4982679;28;20428;-78
2021/04/20 11:17:40;;;;;;;11.70;8.60;;;18.10;55.90;;;;;;4994718;28;20113;-77
2021/04/20 11:20:45;;;;;;;11.27;7.88;;;18.20;55.30;;;;;;4971123;28;20030;-77
2021/04/20 11:23:16;;;;;;;8.98;6.57;;;18.40;53.80;;;;;;4984112;28;20097;-80
2021/04/20 11:25:41;;;;;;;8.15;6.60;;;18.60;51.50;;;;;;4981646;28;20034;-78
2021/04/20 11:28:21;;;;;;;10.93;8.18;;;18.60;50.80;;;;;;4984952;28;20031;-78
2021/04/20 11:31:07;;;;;;;8.98;7.15;;;18.30;51.50;;;;;;4979157;28;20031;-79
2021/04/20 11:33:42;;;;;;;10.25;7.57;;;17.90;51.20;;;;;;4979220;28;20042;-77
2021/04/20 11:36:28;;;;;;;10.20;8.00;;;18.10;51.80;;;;;;4973451;28;20042;-77
2021/04/20 11:38:58;;;;;;;9.38;7.18;;;18.20;51.50;;;;;;4977757;28;20057;-78
2021/04/20 11:41:28;;;;;;;;;;;18.40;50.40;;;;;;4978670;28;20442;-77
2021/04/20 11:44:00;;;;;;;9.30;7.43;;;18.40;50.70;;;;;;4973151;28;20650;-77
2021/04/20 11:46:29;;;;;;;10.20;7.50;;;18.50;49.80;;;;;;4973853;28;20026;-78
2021/04/20 11:49:06;;;;;;;10.07;7.63;;;18.70;49.80;;;;;;4974577;28;20031;-77
2021/04/20 11:51:35;;;;;;;24.58;8.20;;;18.60;49.00;;;;;;4973350;28;20034;-79
2021/04/20 11:54:01;;;;;;;10.27;7.60;;;18.50;49.80;;;;;;4971635;28;20666;-77
2021/04/20 11:56:36;;;;;;;12.00;8.73;;;18.50;49.90;;;;;;4978525;28;20237;-78
2021/04/20 11:59:02;;;;;;;11.15;8.77;;;18.60;50.70;;;;;;4979583;28;20536;-79
2021/04/20 12:01:28;;;;;;;10.50;8.00;;;18.60;50.20;;;;;;4981272;28;20531;-77
2021/04/20 12:04:08;;;;;;;11.10;7.93;;;18.50;51.10;;;;;;4973173;28;20113;-78
2021/04/20 12:06:48;;;;;;;10.27;7.97;;;18.60;49.80;;;;;;4975314;28;20151;-78
2021/04/20 12:09:20;;;;;;;;;;;18.40;50.70;;;;;;4977524;28;20030;-78
2021/04/20 12:11:47;;;;;;;10.77;7.45;;;18.20;50.00;;;;;;4970618;28;19960;-77
2021/04/20 12:14:20;;;;;;;10.63;8.10;;;18.40;49.70;;;;;;4976766;28;20030;-76
2021/04/20 12:16:47;;;;;;;12.15;8.27;;;18.60;50.60;;;;;;4974599;28;20374;-75
2021/04/20 12:19:16;;;;;;;10.52;8.60;;;18.50;50.90;;;;;;4982328;28;20053;-78
2021/04/20 12:21:46;;;;;;;10.77;8.23;;;18.40;50.70;;;;;;4975053;28;20038;-75
2021/04/20 12:24:21;;;;;;;10.07;7.78;;;18.10;51.30;;;;;;4976184;28;20039;-76
2021/04/20 12:26:53;;;;;;;11.27;8.68;;;17.80;52.40;;;;;;4978821;28;20060;-76
2021/04/20 12:29:21;;;;;;;10.15;7.70;;;17.60;52.80;;;;;;4979025;28;20034;-77
2021/04/20 12:31:47;;;;;;;14.90;10.13;;;17.40;52.70;;;;;;4970276;28;20034;-76
2021/04/20 12:34:13;;;;;;;12.00;8.52;;;17.40;52.80;;;;;;4975671;28;20034;-77
2021/04/20 12:36:46;;;;;;;13.10;9.27;;;17.20;52.50;;;;;;4975090;28;20122;-78
2021/04/20 12:39:33;;;;;;;9.30;7.25;;;17.10;52.30;;;;;;4977922;28;20031;-77
2021/04/20 12:42:02;;;;;;;11.77;7.63;;;17.00;52.40;;;;;;4973396;28;20058;-75
2021/04/20 12:44:34;;;;;;;10.05;6.50;;;17.00;52.70;;;;;;4970455;28;20039;-77
2021/04/20 12:47:01;;;;;;;9.00;6.32;;;17.10;51.30;;;;;;4969985;28;20034;-76
2021/04/20 12:49:28;;;;;;;6.72;5.20;;;17.50;51.30;;;;;;4984471;28;20041;-77
2021/04/20 12:51:56;;;;;;;10.07;6.30;;;17.90;49.00;;;;;;4980767;28;20026;-76
2021/04/20 12:54:22;;;;;;;9.90;6.82;;;18.20;50.00;;;;;;4973166;28;20057;-76
2021/04/20 12:56:58;;;;;;;8.77;6.53;;;18.70;50.30;;;;;;4982003;28;20034;-76
2021/04/20 12:59:28;;;;;;;7.88;6.10;;;18.90;49.40;;;;;;4979755;28;20030;-76
2021/04/20 13:01:57;;;;;;;7.90;5.68;;;19.10;49.00;;;;;;4981732;28;20385;-77